Time;durP1;ratioP1;P1;durP2;ratioP2;P2;SDS_P1;SDS_P2;PMS_P1;PMS_P2;Temp;Humidity;BMP_temperature;BMP_pressure;BME280_temperature;BME280_humidity;BME280_pressure;Samples;Min_cycle;Max_cycle;Signal;HPM_P1;HPM_P2
2022/10/24 00:01:25;;;;;;;7.20;2.03;;;15.40;99.90;;;;;;5090975;28;20028;-76
2022/10/24 00:03:54;;;;;;;5.70;2.10;;;15.40;99.90;;;;;;5124331;28;20036;-76
2022/10/24 00:06:22;;;;;;;6.22;2.05;;;15.30;99.90;;;;;;5107195;28;20039;-76
2022/10/24 00:08:48;;;;;;;2.92;1.48;;;15.40;99.90;;;;;;5115319;28;20031;-76
2022/10/24 00:11:26;;;;;;;4.70;2.17;;;15.30;99.90;;;;;;5093658;28;20055;-77
2022/10/24 00:13:58;;;;;;;3.95;2.13;;;15.30;99.90;;;;;;5114113;28;20042;-77
2022/10/24 00:16:28;;;;;;;4.25;1.98;;;15.30;99.90;;;;;;5129076;28;20114;-77
2022/10/24 00:18:54;;;;;;;3.55;1.80;;;15.30;99.90;;;;;;5114454;28;20059;-75
2022/10/24 00:21:23;;;;;;;3.10;2.00;;;15.30;99.90;;;;;;5106286;27;20459;-76
2022/10/24 00:23:48;;;;;;;3.10;2.20;;;15.30;99.90;;;;;;5127602;27;20074;-77
2022/10/24 00:26:15;;;;;;;7.07;1.83;;;15.30;99.90;;;;;;5114772;28;20031;-77
2022/10/24 00:28:41;;;;;;;3.35;1.50;;;15.20;99.90;;;;;;5116418;28;20035;-76
2022/10/24 00:31:14;;;;;;;3.15;1.88;;;15.30;99.90;;;;;;5136184;28;20041;-77
2022/10/24 00:33:47;;;;;;;3.30;1.80;;;15.30;99.90;;;;;;5121600;28;20040;-75
2022/10/24 00:36:24;;;;;;;4.93;1.55;;;15.20;99.90;;;;;;5102898;28;20273;-76
2022/10/24 00:38:51;;;;;;;3.28;1.52;;;13.20;99.90;;;;;;5135457;28;20035;-75
2022/10/24 00:41:19;;;;;;;3.60;1.40;;;15.20;99.90;;;;;;5133152;28;20074;-76
2022/10/24 00:43:48;;;;;;;3.10;1.40;;;15.20;99.90;;;;;;5103684;28;20257;-76
2022/10/24 00:46:16;;;;;;;5.90;1.80;;;15.10;99.90;;;;;;5123973;28;20035;-76
2022/10/24 00:48:53;;;;;;;3.63;1.45;;;15.20;99.90;;;;;;5105066;27;20055;-75
2022/10/24 00:51:27;;;;;;;3.80;1.50;;;15.10;99.90;;;;;;5121569;28;20079;-75
2022/10/24 00:53:58;;;;;;;3.88;1.50;;;15.10;99.90;;;;;;5140413;28;20084;-75
2022/10/24 00:56:38;;;;;;;3.97;1.90;;;15.00;99.90;;;;;;5127287;28;20034;-75
2022/10/24 00:59:16;;;;;;;4.82;1.70;;;15.10;99.90;;;;;;5106079;27;20039;-76
2022/10/24 01:05:13;;;;;;;5.47;1.70;;;15.30;99.90;;;;;;5095592;27;20034;-74
2022/10/24 01:07:38;;;;;;;2.88;1.42;;;15.00;99.90;;;;;;5121154;28;20031;-75
2022/10/24 01:10:37;;;;;;;2.70;1.33;;;15.00;99.90;;;;;;5126349;27;20039;-76
2022/10/24 01:13:18;;;;;;;3.50;1.60;;;15.00;99.90;;;;;;5121945;27;20252;-76
2022/10/24 01:15:53;;;;;;;4.38;1.60;;;15.00;99.90;;;;;;5106802;28;20337;-75
2022/10/24 01:18:47;;;;;;;3.63;1.60;;;15.00;99.90;;;;;;5127158;27;20058;-75
2022/10/24 01:21:34;;;;;;;6.80;1.52;;;15.00;99.90;;;;;;5109214;27;20039;-76
2022/10/24 01:24:45;;;;;;;3.35;1.48;;;15.00;99.90;;;;;;5122577;27;20260;-76
2022/10/24 01:27:29;;;;;;;2.33;1.35;;;15.00;99.90;;;;;;5092269;27;20036;-77
2022/10/24 01:30:04;;;;;;;4.28;1.90;;;15.10;99.90;;;;;;5110257;28;20031;-76
2022/10/24 01:32:38;;;;;;;;;;;15.10;99.90;;;;;;5121392;27;20034;-77
2022/10/24 01:35:14;;;;;;;1.80;1.30;;;15.10;99.90;;;;;;5129206;27;19920;-75
2022/10/24 01:37:57;;;;;;;3.60;1.83;;;15.20;99.90;;;;;;5133256;27;20038;-75
2022/10/24 01:40:37;;;;;;;2.72;1.48;;;15.10;99.90;;;;;;5144678;27;20042;-76
2022/10/24 01:43:09;;;;;;;2.80;1.63;;;15.20;99.90;;;;;;5133964;27;20096;-76
2022/10/24 01:45:39;;;;;;;6.60;2.55;;;15.20;99.90;;;;;;5112996;27;20310;-76
2022/10/24 01:48:08;;;;;;;3.83;1.60;;;15.20;99.90;;;;;;5124542;27;20120;-75
2022/10/24 01:50:37;;;;;;;4.93;1.63;;;15.30;99.90;;;;;;5114570;28;20403;-76
2022/10/24 01:53:04;;;;;;;4.10;2.20;;;15.30;99.90;;;;;;5122235;27;20024;-77
2022/10/24 01:55:38;;;;;;;3.75;1.60;;;15.20;99.90;;;;;;5124876;27;20031;-77
2022/10/24 01:58:15;;;;;;;3.58;1.90;;;15.30;99.90;;;;;;5104923;28;20045;-76
2022/10/24 02:00:43;;;;;;;7.63;2.03;;;16.40;99.90;;;;;;5117538;27;20039;-77
2022/10/24 02:03:54;;;;;;;7.95;2.50;;;15.40;99.90;;;;;;5104866;27;20318;-77
2022/10/24 02:06:40;;;;;;;3.47;1.85;;;15.40;99.90;;;;;;5116531;27;20043;-76
2022/10/24 02:09:15;;;;;;;3.60;1.65;;;15.50;99.90;;;;;;5129393;27;20218;-75
2022/10/24 02:11:43;;;;;;;3.28;1.73;;;15.50;99.90;;;;;;5131222;27;20027;-75
2022/10/24 02:14:21;;;;;;;3.75;1.60;;;15.60;99.90;;;;;;5117833;27;20033;-76
2022/10/24 02:16:48;;;;;;;5.25;1.80;;;15.50;99.90;;;;;;5116533;28;20023;-75
2022/10/24 02:19:14;;;;;;;4.38;2.00;;;15.50;99.90;;;;;;5107557;28;20087;-77
2022/10/24 02:21:40;;;;;;;4.45;2.00;;;15.40;99.90;;;;;;5141973;27;20032;-76
2022/10/24 02:24:44;;;;;;;5.40;2.10;;;15.40;99.90;;;;;;5115458;27;20036;-77
2022/10/24 02:27:17;;;;;;;5.82;2.20;;;15.50;99.90;;;;;;5098442;28;20054;-76
2022/10/24 02:29:58;;;;;;;2.35;1.73;;;15.50;99.90;;;;;;5122584;27;20032;-77
2022/10/24 02:32:40;;;;;;;3.50;1.55;;;15.40;99.90;;;;;;5114141;27;20063;-76
2022/10/24 02:35:29;;;;;;;7.35;2.10;;;13.70;99.90;;;;;;5108408;28;20100;-76
2022/10/24 02:38:27;;;;;;;6.45;2.00;;;15.40;99.90;;;;;;5120721;27;20289;-75
2022/10/24 02:40:58;;;;;;;4.55;2.00;;;15.70;99.90;;;;;;5122487;27;20114;-76
2022/10/24 02:43:24;;;;;;;4.03;1.90;;;16.30;99.90;;;;;;5125454;27;20108;-76
2022/10/24 02:45:55;;;;;;;5.32;2.05;;;15.50;99.90;;;;;;5129321;27;20035;-76
2022/10/24 02:48:25;;;;;;;5.65;1.90;;;15.40;99.90;;;;;;5117187;27;20115;-76
2022/10/24 02:50:51;;;;;;;5.80;2.33;;;15.40;99.90;;;;;;5125929;27;20047;-76
2022/10/24 02:53:20;;;;;;;5.80;2.10;;;15.50;99.90;;;;;;5117954;28;20020;-76
2022/10/24 02:55:48;;;;;;;4.28;1.98;;;15.40;99.90;;;;;;5121011;27;20059;-76
2022/10/24 02:58:14;;;;;;;5.60;2.10;;;15.50;99.90;;;;;;5087898;28;20031;-76
2022/10/24 03:00:42;;;;;;;8.07;2.45;;;15.40;99.90;;;;;;5122988;27;20102;-76
2022/10/24 03:03:29;;;;;;;5.70;2.13;;;15.50;99.90;;;;;;5114006;28;20294;-76
2022/10/24 03:05:54;;;;;;;2.83;1.83;;;15.50;99.90;;;;;;5108240;27;20089;-77
2022/10/24 03:08:20;;;;;;;8.25;2.20;;;15.50;99.90;;;;;;5122748;27;20039;-76
2022/10/24 03:10:45;;;;;;;5.65;2.15;;;15.50;99.90;;;;;;5098368;28;20035;-76
2022/10/24 03:13:14;;;;;;;5.07;2.22;;;15.50;99.90;;;;;;5106445;28;20031;-76
2022/10/24 03:15:40;;;;;;;3.33;1.83;;;15.50;99.90;;;;;;5104756;27;20031;-76
2022/10/24 03:18:05;;;;;;;3.90;1.60;;;15.50;99.90;;;;;;5125992;27;20045;-75
2022/10/24 03:20:34;;;;;;;5.22;1.80;;;15.50;99.90;;;;;;5094474;28;20042;-76
2022/10/24 03:23:00;;;;;;;5.30;2.03;;;15.50;99.90;;;;;;5107522;28;20326;-76
2022/10/24 03:25:25;;;;;;;4.30;1.70;;;15.50;99.90;;;;;;5120940;27;20035;-76
2022/10/24 03:27:53;;;;;;;5.78;1.75;;;15.50;99.90;;;;;;5130131;27;20054;-75
2022/10/24 03:30:19;;;;;;;5.32;2.17;;;15.60;99.90;;;;;;5097264;27;20074;-76
2022/10/24 03:32:45;;;;;;;3.90;2.10;;;15.60;99.90;;;;;;5120735;27;20226;-76
2022/10/24 03:35:10;;;;;;;5.47;2.00;;;15.60;99.90;;;;;;5104575;27;20023;-76
2022/10/24 03:37:48;;;;;;;4.18;2.05;;;15.70;99.90;;;;;;5106098;28;20140;-76
2022/10/24 03:40:16;;;;;;;1.80;1.40;;;15.80;99.90;;;;;;5102245;28;20047;-76
2022/10/24 03:42:47;;;;;;;3.90;1.63;;;15.80;99.90;;;;;;5104221;27;20205;-76
2022/10/24 03:45:12;;;;;;;9.05;2.10;;;15.80;99.90;;;;;;5120120;27;20242;-76
2022/10/24 03:47:38;;;;;;;4.75;2.08;;;15.80;99.90;;;;;;5110583;28;20036;-75
2022/10/24 03:50:05;;;;;;;4.53;2.15;;;15.70;99.90;;;;;;5090231;28;20225;-76
2022/10/24 03:52:34;;;;;;;2.90;1.60;;;15.60;99.90;;;;;;5127410;27;20057;-76
2022/10/24 03:54:59;;;;;;;5.60;2.10;;;15.60;99.90;;;;;;5086488;28;20035;-76
2022/10/24 03:57:25;;;;;;;3.85;2.10;;;15.70;99.90;;;;;;5118962;28;20358;-76
2022/10/24 03:59:51;;;;;;;6.88;2.38;;;15.70;99.90;;;;;;5108760;28;20031;-76
2022/10/24 04:02:19;;;;;;;3.92;1.88;;;15.70;99.90;;;;;;5120067;28;20031;-76
2022/10/24 04:04:45;;;;;;;3.90;1.60;;;15.70;99.90;;;;;;5118828;27;20076;-75
2022/10/24 04:07:14;;;;;;;4.53;1.90;;;15.60;99.90;;;;;;5127697;28;20023;-75
2022/10/24 04:09:40;;;;;;;5.07;1.48;;;15.60;99.90;;;;;;5120764;28;20039;-76
2022/10/24 04:12:09;;;;;;;5.07;1.98;;;15.60;99.90;;;;;;5086392;28;20031;-75
2022/10/24 04:14:34;;;;;;;4.85;1.60;;;15.70;99.90;;;;;;5119756;28;20106;-76
2022/10/24 04:17:00;;;;;;;3.65;1.98;;;15.80;99.90;;;;;;5112913;28;20191;-75
2022/10/24 04:19:26;;;;;;;7.70;2.15;;;15.70;99.90;;;;;;5127800;28;20241;-75
2022/10/24 04:21:52;;;;;;;4.90;2.67;;;15.70;99.90;;;;;;5123969;28;20047;-75
2022/10/24 04:24:18;;;;;;;4.10;1.98;;;15.70;99.90;;;;;;5119015;28;20069;-75
2022/10/24 04:26:43;;;;;;;3.40;1.83;;;15.60;99.90;;;;;;5128211;28;20024;-75
2022/10/24 04:29:10;;;;;;;6.05;2.13;;;15.60;99.90;;;;;;5087175;28;20234;-75
2022/10/24 04:31:35;;;;;;;6.97;2.17;;;15.50;99.90;;;;;;5131019;28;20031;-75
2022/10/24 04:34:05;;;;;;;6.03;2.30;;;15.50;99.90;;;;;;5123564;28;20031;-75
2022/10/24 04:36:34;;;;;;;4.50;2.03;;;15.50;99.90;;;;;;5115320;28;20103;-76
2022/10/24 04:39:00;;;;;;;7.35;2.42;;;16.70;99.90;;;;;;5126437;28;20268;-76
2022/10/24 04:41:38;;;;;;;4.90;1.83;;;15.30;99.90;;;;;;5113865;28;20074;-76
2022/10/24 04:44:04;;;;;;;2.92;1.90;;;15.30;99.90;;;;;;5104225;28;20061;-76
2022/10/24 04:46:29;;;;;;;3.53;1.60;;;15.30;99.90;;;;;;5089828;27;20063;-76
2022/10/24 04:48:55;;;;;;;6.57;2.53;;;15.30;99.90;;;;;;5123526;27;20281;-76
2022/10/24 04:51:26;;;;;;;4.47;2.30;;;15.20;99.90;;;;;;5100175;28;20348;-76
2022/10/24 04:53:52;;;;;;;5.43;2.08;;;15.20;99.90;;;;;;5096401;27;20059;-76
2022/10/24 04:56:33;;;;;;;4.65;1.90;;;15.20;99.90;;;;;;5106311;27;20035;-76
2022/10/24 04:58:59;;;;;;;2.92;1.77;;;15.10;99.90;;;;;;5108425;28;20109;-76
2022/10/24 05:01:25;;;;;;;5.85;2.05;;;15.10;99.90;;;;;;5117029;27;20217;-77
2022/10/24 05:03:53;;;;;;;2.80;1.77;;;15.40;99.90;;;;;;5103727;27;20028;-77
2022/10/24 05:06:19;;;;;;;6.60;2.00;;;15.10;99.90;;;;;;5132676;27;20356;-77
2022/10/24 05:08:45;;;;;;;3.33;1.77;;;15.00;99.90;;;;;;5107507;27;20059;-76
2022/10/24 05:11:13;;;;;;;3.17;1.70;;;14.90;99.90;;;;;;5105834;27;20098;-78
2022/10/24 05:13:40;;;;;;;4.28;2.33;;;15.00;99.90;;;;;;5121575;28;20032;-77
2022/10/24 05:16:08;;;;;;;5.00;2.17;;;15.00;99.90;;;;;;5107467;27;20023;-77
2022/10/24 05:18:34;;;;;;;4.28;1.80;;;14.90;99.90;;;;;;5136227;27;20039;-77
2022/10/24 05:21:00;;;;;;;7.88;3.03;;;14.90;99.90;;;;;;5117986;28;20429;-76
2022/10/24 05:23:26;;;;;;;5.13;2.05;;;14.90;99.90;;;;;;5090082;28;20308;-77
2022/10/24 05:25:52;;;;;;;4.15;1.75;;;14.90;99.90;;;;;;5138262;27;20066;-79
2022/10/24 05:28:18;;;;;;;4.10;2.20;;;14.80;99.90;;;;;;5095576;28;20038;-79
2022/10/24 05:30:45;;;;;;;6.93;2.20;;;14.90;99.90;;;;;;5114284;27;20050;-74
2022/10/24 05:33:14;;;;;;;5.90;1.92;;;14.80;99.90;;;;;;5122122;27;20019;-76
2022/10/24 05:35:40;;;;;;;4.15;2.08;;;14.80;99.90;;;;;;5128559;27;20043;-75
2022/10/24 05:38:06;;;;;;;4.15;1.80;;;14.80;99.90;;;;;;5105418;27;20070;-77
2022/10/24 05:40:32;;;;;;;3.90;1.70;;;14.80;99.90;;;;;;5112370;28;20110;-76
2022/10/24 05:43:00;;;;;;;4.28;1.80;;;14.80;99.90;;;;;;5132101;27;20019;-76
2022/10/24 05:45:25;;;;;;;6.68;1.85;;;14.70;99.90;;;;;;5106518;27;20040;-75
2022/10/24 05:47:51;;;;;;;4.63;2.00;;;14.70;99.90;;;;;;5124177;27;20039;-75
2022/10/24 05:50:17;;;;;;;3.60;2.15;;;14.70;99.90;;;;;;5137332;27;20074;-73
2022/10/24 05:52:45;;;;;;;6.72;1.92;;;14.60;99.90;;;;;;5131478;27;20043;-76
2022/10/24 05:55:11;;;;;;;5.82;1.95;;;16.80;99.90;;;;;;5090657;28;20036;-77
2022/10/24 05:57:37;;;;;;;6.05;2.20;;;14.80;99.90;;;;;;5076676;28;20039;-74
2022/10/24 06:00:10;;;;;;;8.82;2.00;;;14.70;99.90;;;;;;5122731;27;20027;-75
2022/10/24 06:02:47;;;;;;;7.43;1.95;;;14.70;99.90;;;;;;5139285;27;20034;-76
2022/10/24 06:05:16;;;;;;;4.30;2.03;;;14.80;99.90;;;;;;5104574;27;20101;-73
2022/10/24 06:07:49;;;;;;;3.58;1.50;;;14.90;99.90;;;;;;5136488;27;20292;-78
2022/10/24 06:10:28;;;;;;;6.45;1.80;;;14.90;99.90;;;;;;5125988;27;20034;-75
2022/10/24 06:13:13;;;;;;;2.80;1.50;;;15.00;99.90;;;;;;5121949;27;20102;-76
2022/10/24 06:15:43;;;;;;;4.97;1.77;;;15.10;99.90;;;;;;5117053;28;20047;-78
2022/10/24 06:18:11;;;;;;;6.18;1.70;;;15.30;99.90;;;;;;5119268;27;20023;-75
2022/10/24 06:20:37;;;;;;;3.40;1.60;;;13.00;99.90;;;;;;5129171;27;20054;-75
2022/10/24 06:23:03;;;;;;;4.68;1.20;;;15.00;99.90;;;;;;5113874;28;20028;-75
2022/10/24 06:25:28;;;;;;;5.65;2.13;;;15.00;99.90;;;;;;5103299;28;20039;-74
2022/10/24 06:27:54;;;;;;;5.95;2.03;;;15.00;99.90;;;;;;5117326;27;20243;-74
2022/10/24 06:30:19;;;;;;;5.43;1.45;;;15.10;99.90;;;;;;5121189;27;20262;-75
2022/10/24 06:32:45;;;;;;;11.20;1.80;;;15.00;99.90;;;;;;5123005;27;20043;-76
2022/10/24 06:35:13;;;;;;;10.48;2.88;;;15.20;99.90;;;;;;5110740;28;20027;-77
2022/10/24 06:37:45;;;;;;;3.55;1.75;;;15.10;99.90;;;;;;5109186;27;20094;-76
2022/10/24 06:40:19;;;;;;;5.97;1.50;;;16.50;99.90;;;;;;5093920;27;20051;-75
2022/10/24 06:42:45;;;;;;;4.18;1.42;;;15.10;99.90;;;;;;5112790;27;20047;-78
2022/10/24 06:45:11;;;;;;;7.65;1.85;;;15.10;99.90;;;;;;5075435;28;20230;-75
2022/10/24 06:47:37;;;;;;;6.72;1.35;;;15.10;99.90;;;;;;5136620;27;20031;-79
2022/10/24 06:50:04;;;;;;;2.45;1.30;;;15.10;99.90;;;;;;5103465;27;20108;-76
2022/10/24 06:52:30;;;;;;;4.47;1.50;;;15.10;99.90;;;;;;5129788;27;20075;-74
2022/10/24 06:54:55;;;;;;;4.30;1.30;;;15.10;99.90;;;;;;5119711;28;20206;-77
2022/10/24 06:57:21;;;;;;;5.05;1.48;;;15.10;99.90;;;;;;5128077;27;20042;-73
2022/10/24 06:59:47;;;;;;;2.08;1.23;;;15.20;99.90;;;;;;5099184;28;20058;-78
2022/10/24 07:02:15;;;;;;;4.07;1.35;;;15.30;99.90;;;;;;5121044;28;20040;-74
2022/10/24 07:04:43;;;;;;;3.78;1.50;;;15.30;99.90;;;;;;5113811;28;20106;-76
2022/10/24 07:07:16;;;;;;;3.78;1.40;;;15.30;99.90;;;;;;5121237;28;20031;-75
2022/10/24 07:09:54;;;;;;;4.30;1.30;;;15.30;99.90;;;;;;5104770;28;20283;-75
2022/10/24 07:13:10;;;;;;;6.20;1.50;;;15.40;99.90;;;;;;5104241;28;20102;-75
2022/10/24 07:15:35;;;;;;;4.55;1.30;;;16.70;99.90;;;;;;5129607;27;20061;-74
2022/10/24 07:18:01;;;;;;;5.85;1.80;;;15.50;99.90;;;;;;5124856;27;20031;-75
2022/10/24 07:20:27;;;;;;;5.10;1.30;;;15.80;99.90;;;;;;5131172;27;20071;-75
2022/10/24 07:22:52;;;;;;;3.42;1.38;;;15.70;99.90;;;;;;5104163;28;20028;-76
2022/10/24 07:25:18;;;;;;;2.95;1.38;;;15.60;99.90;;;;;;5089359;28;20058;-75
2022/10/24 07:31:53;;;;;;;3.85;1.60;;;15.60;99.90;;;;;;5125652;27;20042;-77
2022/10/24 07:34:25;;;;;;;2.28;1.65;;;15.80;99.90;;;;;;5080499;28;20051;-73
2022/10/24 07:36:51;;;;;;;2.60;1.17;;;15.20;99.90;;;;;;5058711;28;20044;-75
2022/10/24 07:39:17;;;;;;;5.97;1.38;;;16.00;99.90;;;;;;5101589;28;20144;-77
2022/10/24 07:41:45;;;;;;;6.30;1.70;;;15.70;99.90;;;;;;5086979;28;20465;-73
2022/10/24 07:44:19;;;;;;;3.65;1.60;;;15.80;99.90;;;;;;5121982;27;20028;-75
2022/10/24 07:48:18;;;;;;;;;;;;;;;;;;;;;
2022/10/24 07:51:04;;;;;;;3.40;1.58;;;15.80;99.90;;;;;;5114340;28;20055;-72
2022/10/24 07:53:30;;;;;;;4.80;1.33;;;15.00;99.90;;;;;;5078203;28;20042;-77
2022/10/24 07:59:43;;;;;;;3.45;1.38;;;16.30;99.90;;;;;;5049809;28;20720;-74
2022/10/24 08:02:11;;;;;;;5.55;1.27;;;16.00;99.90;;;;;;5042296;28;20137;-75
2022/10/24 08:04:36;;;;;;;6.45;1.60;;;15.90;99.90;;;;;;5122397;28;20106;-73
2022/10/24 08:07:02;;;;;;;4.32;1.50;;;15.90;99.90;;;;;;5118002;28;20035;-72
2022/10/24 08:09:28;;;;;;;3.40;1.40;;;16.00;99.90;;;;;;5122366;28;20035;-72
2022/10/24 08:11:53;;;;;;;5.07;1.38;;;16.00;99.90;;;;;;5106625;28;20279;-71
2022/10/24 08:14:19;;;;;;;3.03;1.00;;;16.00;99.90;;;;;;5100554;28;20032;-73
2022/10/24 08:16:45;;;;;;;4.18;1.60;;;16.10;99.90;;;;;;5125112;28;20314;-74
2022/10/24 08:19:11;;;;;;;3.55;1.60;;;16.00;99.90;;;;;;5112918;28;20024;-71
2022/10/24 08:21:37;;;;;;;4.18;1.67;;;16.10;99.90;;;;;;5115380;27;20345;-72
2022/10/24 08:24:03;;;;;;;6.28;1.45;;;16.10;99.90;;;;;;5138455;27;20090;-74
2022/10/24 08:26:29;;;;;;;4.10;1.77;;;16.30;99.90;;;;;;5134674;27;20082;-74
2022/10/24 08:28:57;;;;;;;2.95;1.17;;;16.30;99.90;;;;;;5124048;28;20102;-75
2022/10/24 08:31:24;;;;;;;6.97;1.55;;;16.30;99.90;;;;;;5110556;27;20025;-74
2022/10/24 08:33:52;;;;;;;5.22;1.55;;;16.20;99.90;;;;;;5114129;27;20027;-73
2022/10/24 08:36:29;;;;;;;6.43;1.75;;;16.30;99.90;;;;;;5100485;27;20031;-73
2022/10/24 08:38:56;;;;;;;6.05;1.67;;;16.20;99.90;;;;;;5124839;27;20035;-75
2022/10/24 08:41:49;;;;;;;6.82;1.77;;;16.30;99.90;;;;;;5139353;27;20066;-73
2022/10/24 08:44:36;;;;;;;5.05;1.83;;;16.20;99.90;;;;;;5131190;27;20090;-74
2022/10/24 08:47:26;;;;;;;3.75;1.15;;;16.10;99.90;;;;;;5110483;28;20047;-73
2022/10/24 08:50:24;;;;;;;4.18;1.40;;;16.20;99.90;;;;;;5125892;27;20092;-74
2022/10/24 08:53:11;;;;;;;4.82;1.33;;;16.20;99.90;;;;;;5115741;27;20088;-74
2022/10/24 08:56:12;;;;;;;5.75;2.00;;;16.10;99.90;;;;;;5131843;27;20054;-73
2022/10/24 08:58:43;;;;;;;11.35;1.85;;;16.10;99.90;;;;;;5111546;27;20243;-73
2022/10/24 09:01:18;;;;;;;7.13;1.60;;;16.20;99.90;;;;;;5142908;27;20031;-74
2022/10/24 09:03:51;;;;;;;7.25;1.55;;;15.80;99.90;;;;;;5139519;27;20039;-74
2022/10/24 09:06:23;;;;;;;8.57;2.00;;;15.60;99.90;;;;;;5143274;27;20042;-75
2022/10/24 09:08:54;;;;;;;4.35;1.42;;;15.50;99.90;;;;;;5122684;27;20039;-74
2022/10/24 09:11:27;;;;;;;3.67;1.40;;;15.50;99.90;;;;;;5129316;27;20336;-74
2022/10/24 09:13:53;;;;;;;5.95;1.30;;;15.50;99.90;;;;;;5137859;27;20043;-70
2022/10/24 09:16:23;;;;;;;3.85;1.40;;;15.40;99.90;;;;;;5135501;27;20054;-73
2022/10/24 09:18:52;;;;;;;3.47;1.40;;;15.40;99.90;;;;;;5108994;27;20043;-72
2022/10/24 09:21:18;;;;;;;9.32;1.75;;;15.50;99.90;;;;;;5112792;27;20067;-74
2022/10/24 09:23:44;;;;;;;6.78;1.65;;;15.60;99.90;;;;;;5110824;27;20027;-71
2022/10/24 09:26:25;;;;;;;4.60;1.48;;;15.60;99.90;;;;;;5113989;27;20392;-75
2022/10/24 09:28:51;;;;;;;5.63;1.73;;;15.60;99.90;;;;;;5112720;27;20035;-75
2022/10/24 09:31:20;;;;;;;7.22;1.48;;;15.60;99.90;;;;;;5117812;27;20031;-74
2022/10/24 09:33:47;;;;;;;6.80;1.52;;;15.60;99.90;;;;;;5107187;27;20032;-74
2022/10/24 09:36:16;;;;;;;7.80;1.80;;;17.50;99.90;;;;;;5126953;27;20035;-74
2022/10/24 09:38:42;;;;;;;5.38;1.60;;;15.50;99.90;;;;;;5120657;28;20238;-74
2022/10/24 09:41:25;;;;;;;5.60;1.40;;;15.50;99.90;;;;;;5123332;27;20314;-74
2022/10/24 09:43:59;;;;;;;5.25;1.30;;;15.50;99.90;;;;;;5131582;27;20090;-73
2022/10/24 09:46:44;;;;;;;9.20;1.83;;;15.40;99.90;;;;;;5143015;27;20377;-74
2022/10/24 09:49:16;;;;;;;8.75;1.58;;;15.50;99.90;;;;;;5112158;28;20067;-75
2022/10/24 09:51:49;;;;;;;6.05;1.50;;;15.80;99.90;;;;;;5121937;27;20027;-73
2022/10/24 09:54:17;;;;;;;5.75;1.85;;;16.40;99.90;;;;;;5133398;27;20301;-74
2022/10/24 09:56:47;;;;;;;5.25;1.55;;;16.30;99.90;;;;;;5142427;27;20586;-73
2022/10/24 09:59:20;;;;;;;9.85;1.50;;;16.30;99.90;;;;;;5128928;27;20015;-74
2022/10/24 10:01:46;;;;;;;3.80;1.52;;;16.20;99.90;;;;;;5122036;28;20039;-77
2022/10/24 10:04:17;;;;;;;6.05;1.75;;;16.30;99.90;;;;;;5126752;27;20377;-75
2022/10/24 10:06:47;;;;;;;5.95;1.05;;;16.30;99.90;;;;;;5121556;28;20055;-75
2022/10/24 10:09:24;;;;;;;4.00;1.35;;;16.40;99.90;;;;;;5128028;27;20035;-75
2022/10/24 10:11:58;;;;;;;4.25;1.45;;;16.50;99.90;;;;;;5108201;27;20040;-74
2022/10/24 10:14:27;;;;;;;4.38;1.35;;;16.70;99.90;;;;;;5123027;27;20137;-73
2022/10/24 10:17:05;;;;;;;6.75;1.48;;;16.70;99.90;;;;;;5122759;27;20052;-76
2022/10/24 10:19:35;;;;;;;13.23;1.85;;;16.50;99.90;;;;;;5120427;28;20040;-76
2022/10/24 10:22:03;;;;;;;4.85;1.48;;;16.50;99.90;;;;;;5104908;28;20035;-77
2022/10/24 10:24:37;;;;;;;5.00;1.58;;;16.40;99.90;;;;;;5103803;28;20340;-75
2022/10/24 10:27:31;;;;;;;3.92;1.10;;;16.40;99.90;;;;;;5122461;27;20142;-73
2022/10/24 10:30:14;;;;;;;3.92;1.42;;;16.40;99.90;;;;;;5120405;27;20034;-76
2022/10/24 10:33:06;;;;;;;6.80;2.05;;;16.40;99.90;;;;;;5122605;27;20043;-74
2022/10/24 10:35:37;;;;;;;6.25;1.65;;;16.30;99.90;;;;;;5139953;27;20042;-76
2022/10/24 10:38:18;;;;;;;6.85;1.67;;;16.40;99.90;;;;;;5141401;27;20038;-76
2022/10/24 10:40:49;;;;;;;4.80;1.35;;;16.40;99.90;;;;;;5129818;27;20039;-74
2022/10/24 10:43:26;;;;;;;5.20;1.50;;;16.50;99.90;;;;;;5120694;28;20038;-74
2022/10/24 10:46:23;;;;;;;3.80;1.70;;;16.50;99.90;;;;;;5119632;27;20333;-76
2022/10/24 10:49:09;;;;;;;6.80;1.90;;;16.60;99.90;;;;;;5119257;28;20063;-75
2022/10/24 10:51:56;;;;;;;9.15;1.88;;;16.50;99.90;;;;;;5102904;28;20049;-76
2022/10/24 10:54:44;;;;;;;6.30;1.40;;;16.60;99.90;;;;;;5134595;27;20061;-74
2022/10/24 10:57:29;;;;;;;6.18;1.33;;;16.60;99.90;;;;;;5103466;28;20047;-72
2022/10/24 11:00:06;;;;;;;4.80;1.30;;;16.60;99.90;;;;;;5108839;27;20249;-74
2022/10/24 11:03:28;;;;;;;4.45;1.75;;;16.60;99.90;;;;;;5131399;27;20206;-74
2022/10/24 11:06:35;;;;;;;6.40;1.27;;;16.50;99.90;;;;;;5024846;28;20045;-75
2022/10/24 11:09:21;;;;;;;4.75;1.42;;;16.50;99.90;;;;;;5067262;27;20039;-75
2022/10/24 11:11:54;;;;;;;6.20;1.38;;;16.50;99.90;;;;;;5121799;27;20074;-75
2022/10/24 11:14:51;;;;;;;4.72;1.27;;;16.60;99.90;;;;;;5123590;27;20097;-77
2022/10/24 11:17:25;;;;;;;6.05;1.77;;;16.50;99.90;;;;;;5107076;27;20047;-74
2022/10/24 11:20:22;;;;;;;5.07;1.13;;;16.50;99.90;;;;;;5138067;27;20090;-75
2022/10/24 11:22:58;;;;;;;4.35;1.33;;;16.60;99.90;;;;;;5080216;28;20274;-75
2022/10/24 11:25:32;;;;;;;3.20;1.13;;;16.80;99.90;;;;;;5119791;28;20226;-76
2022/10/24 11:28:02;;;;;;;7.80;1.40;;;16.90;99.90;;;;;;5120188;28;20027;-74
2022/10/24 11:30:52;;;;;;;5.45;1.58;;;16.80;99.90;;;;;;5119166;28;20447;-77
2022/10/24 11:33:24;;;;;;;7.97;1.10;;;16.70;99.90;;;;;;5102462;28;20027;-76
2022/10/24 11:36:19;;;;;;;4.97;1.10;;;16.90;99.90;;;;;;5101826;28;20043;-74
2022/10/24 11:39:06;;;;;;;6.43;1.10;;;16.80;99.90;;;;;;5118674;28;20042;-74
2022/10/24 11:41:44;;;;;;;6.93;1.55;;;16.80;99.90;;;;;;5118767;28;20043;-75
2022/10/24 11:44:20;;;;;;;5.25;1.30;;;16.80;99.90;;;;;;5104863;27;20028;-74
2022/10/24 11:46:55;;;;;;;5.25;1.13;;;16.70;99.90;;;;;;5139178;27;20042;-73
2022/10/24 11:49:30;;;;;;;6.70;1.30;;;16.70;99.90;;;;;;5140029;27;20061;-74
2022/10/24 11:52:09;;;;;;;3.90;1.13;;;16.70;99.90;;;;;;5114442;27;20089;-75
2022/10/24 11:55:19;;;;;;;4.10;1.10;;;16.90;99.90;;;;;;5119201;28;20035;-74
2022/10/24 11:57:50;;;;;;;5.88;1.52;;;16.90;99.90;;;;;;5072946;28;20035;-78
2022/10/24 12:00:24;;;;;;;7.63;1.77;;;16.90;99.90;;;;;;5102548;28;20203;-77
2022/10/24 12:02:56;;;;;;;4.38;1.40;;;16.70;99.90;;;;;;5132620;28;20031;-75
2022/10/24 12:06:15;;;;;;;6.95;1.38;;;16.60;99.90;;;;;;5138879;27;20039;-75
2022/10/24 12:09:08;;;;;;;4.60;1.00;;;16.50;99.90;;;;;;5025428;28;20048;-74
2022/10/24 12:12:08;;;;;;;9.07;1.83;;;16.40;99.90;;;;;;5044632;28;20218;-75
2022/10/24 12:15:10;;;;;;;5.80;1.65;;;16.40;99.90;;;;;;5129866;28;20081;-78
2022/10/24 12:17:49;;;;;;;6.70;1.23;;;16.30;99.90;;;;;;5124272;28;20026;-74
2022/10/24 12:20:21;;;;;;;7.93;1.10;;;16.40;99.90;;;;;;5126197;28;20194;-75
2022/10/24 12:22:48;;;;;;;4.15;1.45;;;16.50;99.90;;;;;;5118655;28;20079;-75
2022/10/24 12:25:51;;;;;;;7.90;1.52;;;16.50;99.90;;;;;;5105594;28;20035;-77
2022/10/24 12:28:48;;;;;;;2.88;1.10;;;16.60;99.90;;;;;;5048726;28;20055;-76
2022/10/24 12:31:13;;;;;;;6.85;1.30;;;16.70;99.90;;;;;;5079227;28;20039;-75
2022/10/24 12:33:43;;;;;;;7.55;1.13;;;16.60;99.90;;;;;;5101745;28;20203;-75
2022/10/24 12:36:09;;;;;;;4.50;1.20;;;16.60;99.90;;;;;;5119950;28;20036;-75
2022/10/24 12:38:59;;;;;;;5.75;1.25;;;16.50;99.90;;;;;;5086444;28;20039;-76
2022/10/24 12:41:38;;;;;;;4.78;1.20;;;16.60;99.90;;;;;;5119206;28;20110;-75
2022/10/24 12:44:33;;;;;;;5.85;1.48;;;16.60;99.90;;;;;;5120363;28;20049;-74
2022/10/24 12:47:02;;;;;;;3.95;1.23;;;16.60;99.90;;;;;;5118997;28;20081;-75
2022/10/24 12:49:30;;;;;;;4.18;1.52;;;16.80;99.90;;;;;;5118866;28;20088;-73
2022/10/24 12:51:56;;;;;;;6.45;1.73;;;16.80;99.90;;;;;;5101664;28;20550;-77
2022/10/24 12:54:43;;;;;;;7.47;1.52;;;16.70;99.90;;;;;;5120770;28;20203;-73
2022/10/24 12:57:12;;;;;;;5.78;1.40;;;16.60;99.90;;;;;;5139498;28;20031;-77
2022/10/24 12:59:48;;;;;;;7.82;3.17;;;16.40;99.90;;;;;;5135192;28;20040;-76
2022/10/24 13:02:19;;;;;;;7.85;1.35;;;16.30;99.90;;;;;;5118650;28;20071;-73
2022/10/24 13:04:56;;;;;;;5.50;1.20;;;16.30;99.90;;;;;;5118512;28;20403;-75
2022/10/24 13:07:40;;;;;;;4.68;1.30;;;16.40;99.90;;;;;;5105172;28;20210;-76
2022/10/24 13:10:35;;;;;;;5.35;1.40;;;16.50;99.90;;;;;;5128545;27;20015;-75
2022/10/24 13:13:24;;;;;;;4.85;1.40;;;16.60;99.90;;;;;;5136738;27;20034;-74
2022/10/24 13:16:04;;;;;;;3.30;1.02;;;16.60;99.90;;;;;;5086479;27;20035;-77
2022/10/24 13:18:33;;;;;;;8.25;1.30;;;16.60;99.90;;;;;;5104891;28;20031;-74
2022/10/24 13:21:17;;;;;;;6.15;1.10;;;16.50;99.90;;;;;;5105955;27;20523;-74
2022/10/24 13:24:21;;;;;;;;;;;;;;;;;;;;;
2022/10/24 13:27:08;;;;;;;6.72;1.50;;;16.40;99.90;;;;;;5116453;28;20036;-76
2022/10/24 13:29:54;;;;;;;5.07;1.20;;;16.30;99.90;;;;;;5043759;28;20104;-75
2022/10/24 13:32:20;;;;;;;6.60;1.50;;;14.40;99.90;;;;;;5124795;27;20043;-77
2022/10/24 13:34:49;;;;;;;3.33;1.30;;;16.50;99.90;;;;;;5140954;27;20074;-75
2022/10/24 13:37:25;;;;;;;4.35;1.30;;;16.20;99.90;;;;;;5108712;28;20023;-75